This is the latest recevied weather packets stored in our database for station/object DK7LH-6. If no packets are shown the sender has not sent any weather packets the latest 10 day(s).
| Time | Temp. | Humidity | Pressure | Rain* | Wind** | Luminosity | Snow |
|---|---|---|---|---|---|---|---|
| 1778409967 | 16.11° C | 70% | 1013 hPa | 0 mm | - | 293 W/m² | - |
| 1778409037 | 16.67° C | 69% | 1013 hPa | 0 mm | - | 373 W/m² | - |
| 1778408169 | 16.67° C | 67% | 1013.1 hPa | 0 mm | - | 466 W/m² | - |
| 1778407239 | 16.11° C | 67% | 1013.2 hPa | 0 mm | - | 550 W/m² | - |
| 1778406371 | 15.56° C | 69% | 1013.3 hPa | 0 mm | - | 511 W/m² | - |
| 1778405441 | 15.56° C | 68% | 1013.4 hPa | 0 mm | - | 324 W/m² | - |
| 1778404573 | 15° C | 69% | 1013.4 hPa | 0 mm | - | 346 W/m² | - |
| 1778403643 | 15° C | 69% | 1013.3 hPa | 0 mm | - | 321 W/m² | - |
| 1778402752 | 15° C | 71% | 1013.2 hPa | 0 mm | - | 222 W/m² | - |
| 1778401876 | 14.44° C | 72% | 1013.2 hPa | 0 mm | - | 213 W/m² | - |
| 1778400946 | 15° C | 71% | 1013.3 hPa | 0 mm | - | 313 W/m² | - |
| 1778400016 | 14.44° C | 74% | 1013.3 hPa | 0 mm | - | 247 W/m² | - |
| 1778399148 | 13.89° C | 74% | 1013.3 hPa | 0 mm | - | 355 W/m² | - |
| 1778398218 | 13.33° C | 75% | 1013.4 hPa | 0 mm | - | 281 W/m² | - |
| 1778397350 | 12.78° C | 77% | 1013.5 hPa | 0 mm | - | 214 W/m² | - |
| 1778396420 | 12.78° C | 78% | 1013.6 hPa | 0 mm | - | 207 W/m² | - |
| 1778395552 | 12.22° C | 79% | 1013.7 hPa | 0 mm | - | 204 W/m² | - |
| 1778394622 | 11.67° C | 81% | 1013.7 hPa | 0 mm | - | 162 W/m² | - |
| 1778393754 | 11.67° C | 82% | 1013.6 hPa | 0 mm | - | 148 W/m² | - |
| 1778392824 | 11.11° C | 83% | 1013.7 hPa | 0 mm | - | 99 W/m² | - |
| 1778391956 | 11.11° C | 84% | 1013.6 hPa | 0 mm | - | 108 W/m² | - |
| 1778391026 | 10° C | 88% | 1013.5 hPa | 0 mm | - | 63 W/m² | - |
| 1778390158 | 9.44° C | 91% | 1013.4 hPa | 0 mm | - | 54 W/m² | - |
| 1778389228 | 8.89° C | 93% | 1013.2 hPa | 0 mm | - | 38 W/m² | - |
| 1778388360 | 7.78° C | 93% | 1013.4 hPa | 0 mm | - | 26 W/m² | - |
* Rain latest hour (hover to see other rain measurements)
** Current wind speed in m/s (hover to see current wind gust speed)